Alpha, California Weather observations

Data are for observation ending at time listed.
 Day   Time    Ave.   Ave.  Ave.  Vector   Max.   Stn.    Total    Solar   Ave.   Snow 
  of    of     Air    Rel.  Wind   Wind    Wind   Baro.  Precip.   Rad.    Soil   Depth
Year   Day     Temp.  Hum.  Speed  Dir.    Gust   Pres.                    Temp.       
2016   (PST)    F      %     mph   deg.    mph     mb.     in.     W/m2     F      in. 
---------------------------------------------------------------------------------------  
 176    5:40   51.3    42    5.8   148      9.6   790.3    0.00      79    999.0  162.3
 176    5:50   52.4    41    5.4   150      9.7   790.3    0.00     105    999.0  162.3
 176    6:00   52.9    41    5.1   153      8.1   790.4    0.00     126    999.0  162.3
 176    6:10   53.5    40    4.3   162      6.7   790.4    0.00     148    999.0  162.0
 176    6:20   53.7    40    5.9   152     10.2   790.5    0.00     172    999.0  162.0
 176    6:30   53.9    39    5.9   156      9.4   790.4    0.00     197    999.0  162.0
 176    6:40   54.3    38    6.4   155      9.8   790.5    0.00     123    999.0  162.0
 176    6:50   54.6    37    5.4   159      8.8   790.6    0.00      73    999.0  162.0
 176    7:00   54.9    37    4.6   164      8.6   790.7    0.00      64    999.0  162.0
 176    7:10   54.9    37    3.7   168      8.0   790.7    0.00      94    999.0  162.0
 176    7:20   55.2    36    3.4   169      6.1   790.8    0.00     268    999.0  162.0
 176    7:30   56.0    36    3.5   168      6.9   790.9    0.00     348    999.0  162.0
 176    7:40   56.6    34    5.1   168      8.4   790.9    0.00     373    999.0  162.0
 176    7:50   56.5    34    5.3   160      9.2   791.0    0.00     398    999.0  162.0
 176    8:00   56.8    35    5.4   165      9.1   791.0    0.00     422    999.0  162.0
 176    8:10   57.3    34    6.0   162     10.6   791.1    0.00     445    999.0  162.0
 176    8:20   58.1    32    5.4   164     10.8   791.1    0.00     469    999.0  162.0
 176    8:30   58.2    30    4.6   171      9.8   791.1    0.00     489    999.0  162.0
 176    8:40   58.9    30    5.1   167     12.9   791.0    0.00     511    999.0  162.2
 176    8:50   58.8    30    3.5   179      7.3   791.1    0.00     532    999.0  162.2
 176    9:00   59.4    27    4.7   176     11.8   791.1    0.00     551    999.0  162.1
 176    9:10   59.9    27    3.8   178     10.2   791.2    0.00     570    999.0  161.9
 176    9:20   60.0    26    3.9   183      8.8   791.3    0.00     589    999.0  161.9
 176    9:30   60.9    26    3.6   184      6.4   791.3    0.00     605    999.0  161.9
 176    9:40  999.0   999  999.0   999    999.0   999.0   999.00     999    999.0  999.0
 176    9:50  999.0   999  999.0   999    999.0   999.0   999.00     999    999.0  999.0
 176   10:00  999.0   999  999.0   999    999.0   999.0   999.00     999    999.0  999.0
 176   10:10  999.0   999  999.0   999    999.0   999.0   999.00     999    999.0  999.0
 176   10:20  999.0   999  999.0   999    999.0   999.0   999.00     999    999.0  999.0
 176   10:30  999.0   999  999.0   999    999.0   999.0   999.00     999    999.0  999.0
 176   10:40  999.0   999  999.0   999    999.0   999.0   999.00     999    999.0  999.0
 176   10:50  999.0   999  999.0   999    999.0   999.0   999.00     999    999.0  999.0
 176   11:00  999.0   999  999.0   999    999.0   999.0   999.00     999    999.0  999.0
 176   11:10  999.0   999  999.0   999    999.0   999.0   999.00     999    999.0  999.0
 176   11:20  999.0   999  999.0   999    999.0   999.0   999.00     999    999.0  999.0
 176   11:30  999.0   999  999.0   999    999.0   999.0   999.00     999    999.0  999.0
 176   11:40  999.0   999  999.0   999    999.0   999.0   999.00     999    999.0  999.0
 176   11:50  999.0   999  999.0   999    999.0   999.0   999.00     999    999.0  999.0
 176   12:00  999.0   999  999.0   999    999.0   999.0   999.00     999    999.0  999.0
 176   12:10  999.0   999  999.0   999    999.0   999.0   999.00     999    999.0  999.0
 176   12:20  999.0   999  999.0   999    999.0   999.0   999.00     999    999.0  999.0
 176   12:30  999.0   999  999.0   999    999.0   999.0   999.00     999    999.0  999.0
 176   12:40  999.0   999  999.0   999    999.0   999.0   999.00     999    999.0  999.0
 176   12:50  999.0   999  999.0   999    999.0   999.0   999.00     999    999.0  999.0
 176   13:00  999.0   999  999.0   999    999.0   999.0   999.00     999    999.0  999.0
 176   13:10  999.0   999  999.0   999    999.0   999.0   999.00     999    999.0  999.0
 176   13:20  999.0   999  999.0   999    999.0   999.0   999.00     999    999.0  999.0
 176   13:30  999.0   999  999.0   999    999.0   999.0   999.00     999    999.0  999.0
 176   13:40   65.3    32    4.4   188     10.1   791.8    0.00     673    999.0  161.9
 176   13:50   65.3    32    3.9   200      9.5   791.8    0.00     659    999.0  162.0
 176   14:00   65.1    31    4.4   188     11.0   791.8    0.00     616    999.0  162.2
 176   14:10   65.0    30    3.3   212     10.2   791.8    0.00     152    999.0  162.2
 176   14:20   64.9    34    4.8   177      9.5   791.8    0.00      99    999.0  162.2
 176   14:30   64.5    34    4.6   174     13.1   791.7    0.00      55    999.0  162.2
 176   14:40   64.3    33    4.1   178      8.6   791.7    0.00     104    999.0  162.2
 176   14:50  999.0   999  999.0   999    999.0   999.0   999.00     999    999.0  999.0
 176   15:00  999.0   999  999.0   999    999.0   999.0   999.00     999    999.0  999.0
 176   15:10  999.0   999  999.0   999    999.0   999.0   999.00     999    999.0  999.0
 176   15:20  999.0   999  999.0   999    999.0   999.0   999.00     999    999.0  999.0
 176   15:30  999.0   999  999.0   999    999.0   999.0   999.00     999    999.0  999.0
 176   15:40  999.0   999  999.0   999    999.0   999.0   999.00     999    999.0  999.0
 176   15:50  999.0   999  999.0   999    999.0   999.0   999.00     999    999.0  999.0
 176   16:00  999.0   999  999.0   999    999.0   999.0   999.00     999    999.0  999.0
 176   16:10  999.0   999  999.0   999    999.0   999.0   999.00     999    999.0  999.0
 176   16:20  999.0   999  999.0   999    999.0   999.0   999.00     999    999.0  999.0
 176   16:30  999.0   999  999.0   999    999.0   999.0   999.00     999    999.0  999.0
 176   16:40  999.0   999  999.0   999    999.0   999.0   999.00     999    999.0  999.0
 176   16:50   65.1    25    1.8   335      5.0   791.1    0.00     300    999.0  157.9
 176   17:00   65.1    25    2.2   289      6.6   791.1    0.00      86    999.0  157.9
 176   17:10   64.9    25    2.6   287      9.1   791.1    0.00     255    999.0  157.8
 176   17:20   64.2    25    2.0   297      6.1   791.1    0.00     231    999.0  157.7
 176   17:30   64.3    24    1.4   338      4.6   791.1    0.00     207    999.0  157.8
 176   17:40   64.1    22    1.5   326      5.9   791.1    0.00     183    999.0  157.3
 176   17:50   63.0    25    1.9   324      5.9   791.1    0.00     160    999.0  157.8
 176   18:00   62.2    24    1.9   313      4.2   177.7   176.00     138    32.2    0.0
 176   18:10  999.0   999  999.0   999    999.0   999.0   999.00     999    999.0  999.0
 176   18:20  999.0   999  999.0   999    999.0   999.0   999.00     999    999.0  999.0
 176   18:30  999.0   999  999.0   999    999.0   999.0   999.00     999    999.0  999.0
 176   18:40   59.7    33    2.0   320      4.4   791.2    0.00      12    999.0  162.0
 176   18:50   59.3    36    2.0   320      3.7   791.2    0.00      11    999.0  162.1
 176   19:00   58.7    37    2.1   317      4.7   791.2    0.00       9    999.0  162.2
 176   19:10   58.1    39    1.9   327      4.6   791.2    0.00       7    999.0  162.3
 176   19:20   57.5    41    1.8   329      3.9   791.2    0.00       5    999.0  162.3
 176   19:30   56.8    43    2.0   329      3.4   791.2    0.00       3    999.0  162.3
 176   19:40   56.1    44    1.9   330      2.6   791.2    0.00       1    999.0  162.3
 176   19:50   55.6    46    1.7   336      2.3   791.2    0.00       0    999.0  162.3
 176   20:00   55.3    46    1.4   342      2.6   791.1    0.00       0    999.0  162.3
 176   20:10   55.1    47    1.8    11      2.7   791.2    0.00       0    999.0  162.3
 176   20:20   54.9    46    1.6    83      2.8   791.2    0.00       0    999.0  162.3
 176   20:30   54.9    46    1.8    85      3.5   791.2    0.00       0    999.0  162.3
 176   20:40   55.6    43    2.7    80      4.2   791.2    0.00       0    999.0  162.3
 176   20:50   56.0    40    2.3    77      3.7   791.2    0.00       0    999.0  162.3
 176   21:00   56.5    38    2.2    84      3.6   791.3    0.00       0    999.0  162.3
 176   21:10   56.7    36    1.8    88      2.7   791.3    0.00       0    999.0  162.3
 176   21:20   57.3    30    1.2    88      1.6   791.3    0.00       0    999.0  162.3
 176   21:30   57.9    28    0.8    78      1.9   791.2    0.00       0    999.0  162.1
 176   21:40   57.6    24    0.0     0      0.0   791.2    0.00       0    999.0  146.5
 176   21:50   57.5    16    0.0     0      0.0   791.2    0.00       0    999.0  146.0
 176   22:00   57.5    15    0.5    35      1.2   791.2    0.00       0    999.0  159.3
 176   22:10   58.1    14    0.3    40      1.0   791.2    0.00       0    999.0  158.1
 176   22:20   58.3    12    0.0    54      0.2   791.2    0.00       0    999.0   42.9
 176   22:30   57.9    13    0.7    36      1.7   791.2    0.00       0    999.0   15.1
 176   22:40   58.0    14    1.2    47      2.9   791.1    0.00       0    999.0   14.2
 176   22:50   58.5    14    0.8   102      2.9   791.1    0.00       0    999.0   14.7
 176   23:00   58.1    18    1.3   133      5.2   791.1    0.00       0    999.0   13.9
 176   23:10   57.6    20    0.9    88      3.3   791.0    0.00       0    999.0   13.1
 176   23:20   57.1    22    3.4    95      6.1   790.9    0.00       0    999.0   28.1
 176   23:30   57.5    21    4.3    93      7.0   790.8    0.00       0    999.0  157.3
 176   23:40   57.7    21    4.4    73      9.1   790.7    0.00       0    999.0  157.7
 176   23:50   58.0    21    4.4    69      7.6   790.5    0.00       0    999.0  157.7
 177    0:00   58.0    22    4.1    65      7.1   790.4    0.00       0    999.0  157.7
 177    0:10   57.8    22    4.5    69     10.6   790.4    0.00       0    999.0  157.7
 177    0:20   57.8    22    4.9    70      9.6   790.4    0.00       0    999.0  157.7
 177    0:30   57.6    22    5.8    82     10.4   790.3    0.00       0    999.0  157.7
 177    0:40   57.6    23    6.4    80     10.4   790.2    0.00       0    999.0  157.7
 177    0:50   57.5    23    7.2    78     11.5   790.2    0.00       0    999.0  157.7
 177    1:00   57.3    24    6.8    76     13.1   790.1    0.00       0    999.0  157.9
 177    1:10   57.2    24    7.0    70     14.8   790.1    0.00       0    999.0  158.0
 177    1:20   56.9    25    7.2    76     13.0   790.1    0.00       0    999.0  158.7
 177    1:30   56.8    26    7.3    74     14.1   790.1    0.00       0    999.0  161.5
 177    1:40   56.2    27    6.3    72     11.2   790.1    0.00       0    999.0  161.8
 177    1:50   56.1    27    6.4    75     11.5   790.0    0.00       0    999.0  161.9
 177    2:00   55.9    27    8.3    71     15.9   790.0    0.00       0    999.0  161.9
 177    2:10   55.9    27    6.5    72     12.3   790.0    0.00       0    999.0  161.9
 177    2:20   55.5    27    6.8    73     11.1   790.0    0.00       0    999.0  161.9
 177    2:30   55.4    28    6.7    71     12.7   789.9    0.00       0    999.0  161.9
 177    2:40   55.3    28    6.2    81     11.5   789.9    0.00       0    999.0  161.7
 177    2:50   55.1    28    5.7    80     12.8   789.9    0.00       0    999.0  162.0
 177    3:00   55.3    27    6.9    83     13.2   789.9    0.00       0    999.0  162.0
 177    3:10   55.4    27    5.9    90     11.0   789.9    0.00       0    999.0  161.9
 177    3:20   54.8    28    6.1    88     10.2   789.9    0.00       0    999.0  162.1
 177    3:30   55.1    27    6.2    88     11.2   789.9    0.00       0    999.0  162.0
 177    3:40   55.5    25    6.7    84     13.1   789.9    0.00       0    999.0  161.9
 177    3:50   56.1    24    6.4    87     13.4   790.0    0.00       0    999.0  161.7
 177    4:00   56.0    23    5.6    84      9.8   790.1    0.00       0    999.0  160.9
 177    4:10   56.7    21    5.3    79      8.9   790.2    0.00       0    999.0  161.1
 177    4:20   56.6    21    5.3    83     10.7   790.2    0.00       0    999.0  158.9
 177    4:30   57.0    19    5.1    80      7.5   790.2    0.00       1    999.0  157.8
 177    4:40   56.9    19    4.8    79      6.9   790.3    0.00       2    999.0   84.7
 177    4:50   56.9    19    4.5    79      7.8   790.3    0.00       3    999.0   13.8
 177    5:00   56.6    19    4.3    77      7.5   790.3    0.00       6    999.0   13.4
 177    5:10   57.1    18    4.3    82      6.9   790.4    0.00      10    999.0   13.2
 177    5:20   57.6    17    4.5    79      6.3   790.4    0.00      14    999.0   13.6
 177    5:30   58.0    17    3.9    79      6.1   790.5    0.00      20    999.0   13.6

Return to Alpha graphs page.


Western Regional Climate Center,wrcc@dri.edu